sensor_id;sensor_type;location;lat;lon;timestamp;temperature;humidity
26909;DHT22;14477;51.038;4.588;2023-12-20T00:01:33;8.60;99.90
26909;DHT22;14477;51.038;4.588;2023-12-20T00:03:59;8.70;99.90
26909;DHT22;14477;51.038;4.588;2023-12-20T00:06:25;8.60;99.90
26909;DHT22;14477;51.038;4.588;2023-12-20T00:11:17;8.60;99.90
26909;DHT22;14477;51.038;4.588;2023-12-20T00:13:43;8.50;99.90
26909;DHT22;14477;51.038;4.588;2023-12-20T00:16:09;8.50;99.90
26909;DHT22;14477;51.038;4.588;2023-12-20T00:18:35;8.50;99.90
26909;DHT22;14477;51.038;4.588;2023-12-20T00:21:01;8.50;99.90
26909;DHT22;14477;51.038;4.588;2023-12-20T00:23:26;8.40;99.90
26909;DHT22;14477;51.038;4.588;2023-12-20T00:25:52;8.50;99.90
26909;DHT22;14477;51.038;4.588;2023-12-20T00:28:18;8.40;99.90
26909;DHT22;14477;51.038;4.588;2023-12-20T00:30:44;8.40;99.90
26909;DHT22;14477;51.038;4.588;2023-12-20T00:33:10;8.40;99.90
26909;DHT22;14477;51.038;4.588;2023-12-20T00:35:36;8.30;99.90
26909;DHT22;14477;51.038;4.588;2023-12-20T00:38:01;8.30;99.90
26909;DHT22;14477;51.038;4.588;2023-12-20T00:40:27;8.30;99.90
26909;DHT22;14477;51.038;4.588;2023-12-20T00:42:53;8.30;99.90
26909;DHT22;14477;51.038;4.588;2023-12-20T00:47:45;8.30;99.90
26909;DHT22;14477;51.038;4.588;2023-12-20T00:50:11;8.20;99.90
26909;DHT22;14477;51.038;4.588;2023-12-20T00:52:37;8.20;99.90
26909;DHT22;14477;51.038;4.588;2023-12-20T00:55:04;8.20;99.90
26909;DHT22;14477;51.038;4.588;2023-12-20T00:57:30;8.10;99.90
26909;DHT22;14477;51.038;4.588;2023-12-20T00:59:56;8.10;99.90
26909;DHT22;14477;51.038;4.588;2023-12-20T01:02:22;8.10;99.90
26909;DHT22;14477;51.038;4.588;2023-12-20T01:04:48;8.00;99.90
26909;DHT22;14477;51.038;4.588;2023-12-20T01:07:14;8.00;99.90
26909;DHT22;14477;51.038;4.588;2023-12-20T01:09:40;8.00;99.90
26909;DHT22;14477;51.038;4.588;2023-12-20T01:12:06;7.60;99.90
26909;DHT22;14477;51.038;4.588;2023-12-20T01:16:58;7.90;99.90
26909;DHT22;14477;51.038;4.588;2023-12-20T01:19:24;7.90;99.90
26909;DHT22;14477;51.038;4.588;2023-12-20T01:21:50;7.90;99.90
26909;DHT22;14477;51.038;4.588;2023-12-20T01:24:16;7.90;99.90
26909;DHT22;14477;51.038;4.588;2023-12-20T01:26:42;7.80;99.90
26909;DHT22;14477;51.038;4.588;2023-12-20T01:29:08;7.80;99.90
26909;DHT22;14477;51.038;4.588;2023-12-20T01:31:34;7.90;99.90
26909;DHT22;14477;51.038;4.588;2023-12-20T01:33:59;7.80;99.90
26909;DHT22;14477;51.038;4.588;2023-12-20T01:36:25;7.80;99.90
26909;DHT22;14477;51.038;4.588;2023-12-20T01:38:51;7.80;99.90
26909;DHT22;14477;51.038;4.588;2023-12-20T01:41:16;7.80;99.90
26909;DHT22;14477;51.038;4.588;2023-12-20T01:43:43;7.80;99.90
26909;DHT22;14477;51.038;4.588;2023-12-20T01:46:09;7.80;99.90
26909;DHT22;14477;51.038;4.588;2023-12-20T01:48:35;7.80;99.90
26909;DHT22;14477;51.038;4.588;2023-12-20T01:51:02;7.80;99.90
26909;DHT22;14477;51.038;4.588;2023-12-20T01:53:28;7.80;99.90
26909;DHT22;14477;51.038;4.588;2023-12-20T01:55:55;7.70;99.90
26909;DHT22;14477;51.038;4.588;2023-12-20T01:58:22;7.70;99.90
26909;DHT22;14477;51.038;4.588;2023-12-20T02:00:49;7.80;99.90
26909;DHT22;14477;51.038;4.588;2023-12-20T02:03:14;7.80;99.90
26909;DHT22;14477;51.038;4.588;2023-12-20T02:05:41;7.70;99.90
26909;DHT22;14477;51.038;4.588;2023-12-20T02:08:07;7.80;99.90
26909;DHT22;14477;51.038;4.588;2023-12-20T02:10:32;7.30;99.90
26909;DHT22;14477;51.038;4.588;2023-12-20T02:12:59;7.70;99.90
26909;DHT22;14477;51.038;4.588;2023-12-20T02:15:24;7.70;99.90
26909;DHT22;14477;51.038;4.588;2023-12-20T02:17:50;7.70;99.90
26909;DHT22;14477;51.038;4.588;2023-12-20T02:20:16;7.70;99.90
26909;DHT22;14477;51.038;4.588;2023-12-20T02:22:42;7.70;99.90
26909;DHT22;14477;51.038;4.588;2023-12-20T02:25:08;7.70;99.90
26909;DHT22;14477;51.038;4.588;2023-12-20T02:27:34;7.70;99.90
26909;DHT22;14477;51.038;4.588;2023-12-20T02:30:01;7.70;99.90
26909;DHT22;14477;51.038;4.588;2023-12-20T02:32:27;7.80;99.90
26909;DHT22;14477;51.038;4.588;2023-12-20T02:34:55;7.80;99.90
26909;DHT22;14477;51.038;4.588;2023-12-20T02:37:21;7.80;99.90
26909;DHT22;14477;51.038;4.588;2023-12-20T02:39:46;7.90;99.90
26909;DHT22;14477;51.038;4.588;2023-12-20T02:42:12;7.90;99.90
26909;DHT22;14477;51.038;4.588;2023-12-20T02:44:38;7.90;99.90
26909;DHT22;14477;51.038;4.588;2023-12-20T02:47:04;8.00;99.90
26909;DHT22;14477;51.038;4.588;2023-12-20T02:49:30;8.00;99.90
26909;DHT22;14477;51.038;4.588;2023-12-20T02:51:55;8.00;99.90
26909;DHT22;14477;51.038;4.588;2023-12-20T02:54:21;8.00;99.90
26909;DHT22;14477;51.038;4.588;2023-12-20T02:56:48;8.10;99.90
26909;DHT22;14477;51.038;4.588;2023-12-20T02:59:14;8.00;99.90
26909;DHT22;14477;51.038;4.588;2023-12-20T03:01:45;8.00;99.90
26909;DHT22;14477;51.038;4.588;2023-12-20T03:04:14;8.00;99.90
26909;DHT22;14477;51.038;4.588;2023-12-20T03:06:40;8.10;99.90
26909;DHT22;14477;51.038;4.588;2023-12-20T03:09:06;8.10;99.90
26909;DHT22;14477;51.038;4.588;2023-12-20T03:11:32;8.10;99.90
26909;DHT22;14477;51.038;4.588;2023-12-20T03:13:58;8.10;99.90
26909;DHT22;14477;51.038;4.588;2023-12-20T03:16:23;8.10;99.90
26909;DHT22;14477;51.038;4.588;2023-12-20T03:18:49;8.20;99.90
26909;DHT22;14477;51.038;4.588;2023-12-20T03:21:15;8.20;99.90
26909;DHT22;14477;51.038;4.588;2023-12-20T03:23:41;8.20;99.90
26909;DHT22;14477;51.038;4.588;2023-12-20T03:26:07;8.30;99.90
26909;DHT22;14477;51.038;4.588;2023-12-20T03:28:34;8.30;99.90
26909;DHT22;14477;51.038;4.588;2023-12-20T03:31:00;8.30;99.90
26909;DHT22;14477;51.038;4.588;2023-12-20T03:35:54;8.40;99.90
26909;DHT22;14477;51.038;4.588;2023-12-20T03:38:20;8.40;99.90
26909;DHT22;14477;51.038;4.588;2023-12-20T03:40:46;8.40;99.90
26909;DHT22;14477;51.038;4.588;2023-12-20T03:43:12;8.40;99.90
26909;DHT22;14477;51.038;4.588;2023-12-20T03:45:38;8.40;99.90
26909;DHT22;14477;51.038;4.588;2023-12-20T03:48:04;8.40;99.90
26909;DHT22;14477;51.038;4.588;2023-12-20T03:50:30;8.40;99.90
26909;DHT22;14477;51.038;4.588;2023-12-20T03:52:56;8.40;99.90
26909;DHT22;14477;51.038;4.588;2023-12-20T03:55:22;8.50;99.90
26909;DHT22;14477;51.038;4.588;2023-12-20T03:57:48;8.50;99.90
26909;DHT22;14477;51.038;4.588;2023-12-20T04:00:14;8.50;99.90
26909;DHT22;14477;51.038;4.588;2023-12-20T04:02:41;8.50;99.90
26909;DHT22;14477;51.038;4.588;2023-12-20T04:05:08;8.50;99.90
26909;DHT22;14477;51.038;4.588;2023-12-20T04:07:35;8.60;99.90
26909;DHT22;14477;51.038;4.588;2023-12-20T04:10:01;8.60;99.90
26909;DHT22;14477;51.038;4.588;2023-12-20T04:12:28;8.50;99.90
26909;DHT22;14477;51.038;4.588;2023-12-20T04:14:54;8.60;99.90
26909;DHT22;14477;51.038;4.588;2023-12-20T04:17:20;8.60;99.90
26909;DHT22;14477;51.038;4.588;2023-12-20T04:19:49;8.50;99.90
26909;DHT22;14477;51.038;4.588;2023-12-20T04:22:15;8.50;99.90
26909;DHT22;14477;51.038;4.588;2023-12-20T04:24:40;8.50;99.90
26909;DHT22;14477;51.038;4.588;2023-12-20T04:27:08;8.50;99.90
26909;DHT22;14477;51.038;4.588;2023-12-20T04:29:34;8.40;99.90
26909;DHT22;14477;51.038;4.588;2023-12-20T04:32:00;8.40;99.90
26909;DHT22;14477;51.038;4.588;2023-12-20T04:34:26;8.30;99.90
26909;DHT22;14477;51.038;4.588;2023-12-20T04:39:18;8.30;99.90
26909;DHT22;14477;51.038;4.588;2023-12-20T04:41:44;8.30;99.90
26909;DHT22;14477;51.038;4.588;2023-12-20T04:44:09;8.30;99.90
26909;DHT22;14477;51.038;4.588;2023-12-20T04:46:35;8.20;99.90
26909;DHT22;14477;51.038;4.588;2023-12-20T04:49:01;8.10;99.90
26909;DHT22;14477;51.038;4.588;2023-12-20T04:51:27;8.20;99.90
26909;DHT22;14477;51.038;4.588;2023-12-20T04:53:53;8.20;99.90
26909;DHT22;14477;51.038;4.588;2023-12-20T04:56:19;8.20;99.90
26909;DHT22;14477;51.038;4.588;2023-12-20T04:58:45;8.20;99.90
26909;DHT22;14477;51.038;4.588;2023-12-20T05:01:10;8.20;99.90
26909;DHT22;14477;51.038;4.588;2023-12-20T05:03:37;8.20;99.90
26909;DHT22;14477;51.038;4.588;2023-12-20T05:06:03;8.20;99.90
26909;DHT22;14477;51.038;4.588;2023-12-20T05:08:29;8.20;99.90
26909;DHT22;14477;51.038;4.588;2023-12-20T05:10:55;8.20;99.90
26909;DHT22;14477;51.038;4.588;2023-12-20T05:13:21;8.20;99.90
26909;DHT22;14477;51.038;4.588;2023-12-20T05:15:47;8.20;99.90
26909;DHT22;14477;51.038;4.588;2023-12-20T05:18:13;8.10;99.90
26909;DHT22;14477;51.038;4.588;2023-12-20T05:20:40;8.10;99.90
26909;DHT22;14477;51.038;4.588;2023-12-20T05:23:06;8.10;99.90
26909;DHT22;14477;51.038;4.588;2023-12-20T05:25:32;8.10;99.90
26909;DHT22;14477;51.038;4.588;2023-12-20T05:27:58;8.00;99.90
26909;DHT22;14477;51.038;4.588;2023-12-20T05:30:24;8.00;99.90
26909;DHT22;14477;51.038;4.588;2023-12-20T05:32:49;8.00;99.90
26909;DHT22;14477;51.038;4.588;2023-12-20T05:35:15;8.00;99.90
26909;DHT22;14477;51.038;4.588;2023-12-20T05:37:41;5.00;99.90
26909;DHT22;14477;51.038;4.588;2023-12-20T05:40:07;8.00;99.90
26909;DHT22;14477;51.038;4.588;2023-12-20T05:42:37;7.90;99.90
26909;DHT22;14477;51.038;4.588;2023-12-20T05:45:04;7.90;99.90
26909;DHT22;14477;51.038;4.588;2023-12-20T05:47:30;7.90;99.90
26909;DHT22;14477;51.038;4.588;2023-12-20T05:49:55;7.90;99.90
26909;DHT22;14477;51.038;4.588;2023-12-20T05:52:21;7.90;99.90
26909;DHT22;14477;51.038;4.588;2023-12-20T05:54:47;7.90;99.90
26909;DHT22;14477;51.038;4.588;2023-12-20T05:57:13;7.90;99.90
26909;DHT22;14477;51.038;4.588;2023-12-20T05:59:39;7.80;99.90
26909;DHT22;14477;51.038;4.588;2023-12-20T06:02:05;7.80;99.90
26909;DHT22;14477;51.038;4.588;2023-12-20T06:04:31;7.90;99.90
26909;DHT22;14477;51.038;4.588;2023-12-20T06:06:59;7.80;99.90
26909;DHT22;14477;51.038;4.588;2023-12-20T06:09:27;7.90;99.90
26909;DHT22;14477;51.038;4.588;2023-12-20T06:11:53;7.80;99.90
26909;DHT22;14477;51.038;4.588;2023-12-20T06:14:19;7.80;99.90
26909;DHT22;14477;51.038;4.588;2023-12-20T06:16:45;7.80;99.90
26909;DHT22;14477;51.038;4.588;2023-12-20T06:19:11;7.80;99.90
26909;DHT22;14477;51.038;4.588;2023-12-20T06:21:37;7.90;99.90
26909;DHT22;14477;51.038;4.588;2023-12-20T06:24:03;7.90;99.90
26909;DHT22;14477;51.038;4.588;2023-12-20T06:26:29;7.90;99.90
26909;DHT22;14477;51.038;4.588;2023-12-20T06:28:54;7.90;99.90
26909;DHT22;14477;51.038;4.588;2023-12-20T06:31:21;7.90;99.90
26909;DHT22;14477;51.038;4.588;2023-12-20T06:33:47;7.90;99.90
26909;DHT22;14477;51.038;4.588;2023-12-20T06:36:15;7.90;99.90
26909;DHT22;14477;51.038;4.588;2023-12-20T06:38:41;8.00;99.90
26909;DHT22;14477;51.038;4.588;2023-12-20T06:41:07;8.00;99.90
26909;DHT22;14477;51.038;4.588;2023-12-20T06:43:33;8.00;99.90
26909;DHT22;14477;51.038;4.588;2023-12-20T06:46:00;8.00;99.90
26909;DHT22;14477;51.038;4.588;2023-12-20T06:48:26;8.00;99.90
26909;DHT22;14477;51.038;4.588;2023-12-20T06:50:53;7.90;99.90
26909;DHT22;14477;51.038;4.588;2023-12-20T06:53:19;7.90;99.90
26909;DHT22;14477;51.038;4.588;2023-12-20T06:55:44;7.90;99.90
26909;DHT22;14477;51.038;4.588;2023-12-20T06:58:10;7.90;99.90
26909;DHT22;14477;51.038;4.588;2023-12-20T07:00:36;7.90;99.90
26909;DHT22;14477;51.038;4.588;2023-12-20T07:03:02;7.80;99.90
26909;DHT22;14477;51.038;4.588;2023-12-20T07:05:29;7.80;99.90
26909;DHT22;14477;51.038;4.588;2023-12-20T07:07:55;7.60;99.90
26909;DHT22;14477;51.038;4.588;2023-12-20T07:10:20;7.70;99.90
26909;DHT22;14477;51.038;4.588;2023-12-20T07:12:46;7.80;99.90
26909;DHT22;14477;51.038;4.588;2023-12-20T07:15:14;7.80;99.90
26909;DHT22;14477;51.038;4.588;2023-12-20T07:17:40;7.80;99.90
26909;DHT22;14477;51.038;4.588;2023-12-20T07:20:06;7.80;99.90
26909;DHT22;14477;51.038;4.588;2023-12-20T07:22:37;7.70;99.90
26909;DHT22;14477;51.038;4.588;2023-12-20T07:25:03;7.70;99.90
26909;DHT22;14477;51.038;4.588;2023-12-20T07:29:55;7.70;99.90
26909;DHT22;14477;51.038;4.588;2023-12-20T07:32:21;7.70;99.90
26909;DHT22;14477;51.038;4.588;2023-12-20T07:34:48;7.70;99.90
26909;DHT22;14477;51.038;4.588;2023-12-20T07:37:14;7.70;99.90
26909;DHT22;14477;51.038;4.588;2023-12-20T07:42:07;7.70;99.90
26909;DHT22;14477;51.038;4.588;2023-12-20T07:44:33;6.50;99.90
26909;DHT22;14477;51.038;4.588;2023-12-20T07:49:27;7.60;99.90
26909;DHT22;14477;51.038;4.588;2023-12-20T07:51:53;7.70;99.90
26909;DHT22;14477;51.038;4.588;2023-12-20T07:54:19;7.70;99.90
26909;DHT22;14477;51.038;4.588;2023-12-20T07:56:46;7.60;99.90
26909;DHT22;14477;51.038;4.588;2023-12-20T07:59:12;7.60;99.90
26909;DHT22;14477;51.038;4.588;2023-12-20T08:01:38;7.60;99.90
26909;DHT22;14477;51.038;4.588;2023-12-20T08:04:04;6.00;99.90
26909;DHT22;14477;51.038;4.588;2023-12-20T08:06:29;7.60;99.90
26909;DHT22;14477;51.038;4.588;2023-12-20T08:08:55;7.60;99.90
26909;DHT22;14477;51.038;4.588;2023-12-20T08:11:21;7.60;99.90
26909;DHT22;14477;51.038;4.588;2023-12-20T08:13:47;7.60;99.90
26909;DHT22;14477;51.038;4.588;2023-12-20T08:16:16;7.60;99.90
26909;DHT22;14477;51.038;4.588;2023-12-20T08:21:09;7.70;99.90
26909;DHT22;14477;51.038;4.588;2023-12-20T08:23:35;7.80;99.90
26909;DHT22;14477;51.038;4.588;2023-12-20T08:26:07;7.80;99.90
26909;DHT22;14477;51.038;4.588;2023-12-20T08:28:34;7.90;99.90
26909;DHT22;14477;51.038;4.588;2023-12-20T08:31:00;8.40;99.90
26909;DHT22;14477;51.038;4.588;2023-12-20T08:33:26;8.10;99.90
26909;DHT22;14477;51.038;4.588;2023-12-20T08:35:52;8.10;99.90
26909;DHT22;14477;51.038;4.588;2023-12-20T08:38:18;8.10;99.90
26909;DHT22;14477;51.038;4.588;2023-12-20T08:40:44;8.10;99.90
26909;DHT22;14477;51.038;4.588;2023-12-20T08:43:10;8.20;99.90
26909;DHT22;14477;51.038;4.588;2023-12-20T08:45:36;8.20;99.90
26909;DHT22;14477;51.038;4.588;2023-12-20T08:48:02;8.10;99.90
26909;DHT22;14477;51.038;4.588;2023-12-20T08:50:31;8.20;99.90
26909;DHT22;14477;51.038;4.588;2023-12-20T08:52:57;8.20;99.90
26909;DHT22;14477;51.038;4.588;2023-12-20T08:55:23;8.20;99.90
26909;DHT22;14477;51.038;4.588;2023-12-20T08:57:48;8.30;99.90
26909;DHT22;14477;51.038;4.588;2023-12-20T09:00:15;8.40;99.90
26909;DHT22;14477;51.038;4.588;2023-12-20T09:02:41;8.60;99.90
26909;DHT22;14477;51.038;4.588;2023-12-20T09:05:07;8.50;99.90
26909;DHT22;14477;51.038;4.588;2023-12-20T09:07:33;8.60;99.90
26909;DHT22;14477;51.038;4.588;2023-12-20T09:09:59;8.70;99.90
26909;DHT22;14477;51.038;4.588;2023-12-20T09:12:25;8.70;99.90
26909;DHT22;14477;51.038;4.588;2023-12-20T09:14:52;8.80;99.90
26909;DHT22;14477;51.038;4.588;2023-12-20T09:17:18;8.80;99.90
26909;DHT22;14477;51.038;4.588;2023-12-20T09:19:48;8.90;99.90
26909;DHT22;14477;51.038;4.588;2023-12-20T09:22:14;9.00;99.90
26909;DHT22;14477;51.038;4.588;2023-12-20T09:24:40;9.20;99.90
26909;DHT22;14477;51.038;4.588;2023-12-20T09:27:06;9.30;99.90
26909;DHT22;14477;51.038;4.588;2023-12-20T09:29:32;9.40;99.90
26909;DHT22;14477;51.038;4.588;2023-12-20T09:31:58;9.60;99.90
26909;DHT22;14477;51.038;4.588;2023-12-20T09:34:24;12.40;99.90
26909;DHT22;14477;51.038;4.588;2023-12-20T09:36:51;10.00;99.90
26909;DHT22;14477;51.038;4.588;2023-12-20T09:39:18;10.20;99.90
26909;DHT22;14477;51.038;4.588;2023-12-20T09:42:04;10.40;99.90
26909;DHT22;14477;51.038;4.588;2023-12-20T09:44:31;10.60;99.90
26909;DHT22;14477;51.038;4.588;2023-12-20T09:46:57;11.90;99.90
26909;DHT22;14477;51.038;4.588;2023-12-20T09:49:23;10.30;99.90
26909;DHT22;14477;51.038;4.588;2023-12-20T09:51:53;11.00;99.90
26909;DHT22;14477;51.038;4.588;2023-12-20T09:54:21;11.00;99.90
26909;DHT22;14477;51.038;4.588;2023-12-20T09:56:47;11.10;99.90
26909;DHT22;14477;51.038;4.588;2023-12-20T09:59:14;11.20;99.90
26909;DHT22;14477;51.038;4.588;2023-12-20T10:01:41;11.30;99.90
26909;DHT22;14477;51.038;4.588;2023-12-20T10:04:09;11.40;99.90
26909;DHT22;14477;51.038;4.588;2023-12-20T10:06:42;10.70;99.90
26909;DHT22;14477;51.038;4.588;2023-12-20T10:09:08;11.80;99.90
26909;DHT22;14477;51.038;4.588;2023-12-20T10:11:38;11.90;99.90
26909;DHT22;14477;51.038;4.588;2023-12-20T10:14:05;12.00;99.90
26909;DHT22;14477;51.038;4.588;2023-12-20T10:16:32;12.00;99.90
26909;DHT22;14477;51.038;4.588;2023-12-20T10:18:59;11.90;99.90
26909;DHT22;14477;51.038;4.588;2023-12-20T10:21:25;11.80;99.90
26909;DHT22;14477;51.038;4.588;2023-12-20T10:23:55;11.70;99.90
26909;DHT22;14477;51.038;4.588;2023-12-20T10:26:25;11.60;99.90
26909;DHT22;14477;51.038;4.588;2023-12-20T10:28:54;11.40;99.90
26909;DHT22;14477;51.038;4.588;2023-12-20T10:31:30;11.40;99.90
26909;DHT22;14477;51.038;4.588;2023-12-20T10:34:01;11.40;99.90
26909;DHT22;14477;51.038;4.588;2023-12-20T10:36:30;11.30;99.90
26909;DHT22;14477;51.038;4.588;2023-12-20T10:38:56;11.20;99.90
26909;DHT22;14477;51.038;4.588;2023-12-20T10:41:29;11.30;99.90
26909;DHT22;14477;51.038;4.588;2023-12-20T10:44:00;11.10;99.90
26909;DHT22;14477;51.038;4.588;2023-12-20T10:46:30;11.10;99.90
26909;DHT22;14477;51.038;4.588;2023-12-20T10:48:57;11.10;99.90
26909;DHT22;14477;51.038;4.588;2023-12-20T10:51:24;11.00;99.90
26909;DHT22;14477;51.038;4.588;2023-12-20T10:53:56;10.90;99.90
26909;DHT22;14477;51.038;4.588;2023-12-20T10:56:22;10.90;99.90
26909;DHT22;14477;51.038;4.588;2023-12-20T10:58:49;10.80;99.90
26909;DHT22;14477;51.038;4.588;2023-12-20T11:01:17;10.80;99.90
26909;DHT22;14477;51.038;4.588;2023-12-20T11:03:53;10.80;99.90
26909;DHT22;14477;51.038;4.588;2023-12-20T11:06:46;10.80;99.90
26909;DHT22;14477;51.038;4.588;2023-12-20T11:09:25;10.70;99.90
26909;DHT22;14477;51.038;4.588;2023-12-20T11:17:13;10.60;99.90
26909;DHT22;14477;51.038;4.588;2023-12-20T11:22:31;10.60;99.90
26909;DHT22;14477;51.038;4.588;2023-12-20T11:25:08;10.50;99.90
26909;DHT22;14477;51.038;4.588;2023-12-20T11:27:36;10.50;99.90
26909;DHT22;14477;51.038;4.588;2023-12-20T11:30:05;10.50;99.90
26909;DHT22;14477;51.038;4.588;2023-12-20T11:32:35;10.50;99.90
26909;DHT22;14477;51.038;4.588;2023-12-20T11:35:17;10.50;99.90
26909;DHT22;14477;51.038;4.588;2023-12-20T11:37:45;10.50;99.90
26909;DHT22;14477;51.038;4.588;2023-12-20T11:40:15;10.50;99.90
26909;DHT22;14477;51.038;4.588;2023-12-20T11:42:42;10.50;99.90
26909;DHT22;14477;51.038;4.588;2023-12-20T11:45:14;10.50;99.90
26909;DHT22;14477;51.038;4.588;2023-12-20T11:47:46;10.50;99.90
26909;DHT22;14477;51.038;4.588;2023-12-20T11:50:12;10.40;99.90
26909;DHT22;14477;51.038;4.588;2023-12-20T11:52:38;10.50;99.90
26909;DHT22;14477;51.038;4.588;2023-12-20T11:55:04;10.40;99.90
26909;DHT22;14477;51.038;4.588;2023-12-20T11:57:31;10.50;99.90
26909;DHT22;14477;51.038;4.588;2023-12-20T11:59:57;10.40;99.90
26909;DHT22;14477;51.038;4.588;2023-12-20T12:02:23;10.40;99.90
26909;DHT22;14477;51.038;4.588;2023-12-20T12:04:49;10.40;99.90
26909;DHT22;14477;51.038;4.588;2023-12-20T12:07:16;10.40;99.90
26909;DHT22;14477;51.038;4.588;2023-12-20T12:09:43;10.40;99.90
26909;DHT22;14477;51.038;4.588;2023-12-20T12:12:09;10.40;99.90
26909;DHT22;14477;51.038;4.588;2023-12-20T12:14:35;10.40;99.90
26909;DHT22;14477;51.038;4.588;2023-12-20T12:17:03;10.50;99.90
26909;DHT22;14477;51.038;4.588;2023-12-20T12:19:29;10.50;99.90
26909;DHT22;14477;51.038;4.588;2023-12-20T12:22:08;10.50;99.90
26909;DHT22;14477;51.038;4.588;2023-12-20T12:24:39;10.30;99.90
26909;DHT22;14477;51.038;4.588;2023-12-20T12:27:06;10.40;99.90
26909;DHT22;14477;51.038;4.588;2023-12-20T12:29:34;10.60;99.90
26909;DHT22;14477;51.038;4.588;2023-12-20T12:32:01;10.60;99.90
26909;DHT22;14477;51.038;4.588;2023-12-20T12:34:27;10.60;99.90
26909;DHT22;14477;51.038;4.588;2023-12-20T12:36:54;10.60;99.90
26909;DHT22;14477;51.038;4.588;2023-12-20T12:39:20;10.60;99.90
26909;DHT22;14477;51.038;4.588;2023-12-20T12:44:11;10.60;99.90
26909;DHT22;14477;51.038;4.588;2023-12-20T12:46:37;10.70;99.90
26909;DHT22;14477;51.038;4.588;2023-12-20T12:49:04;10.80;99.90
26909;DHT22;14477;51.038;4.588;2023-12-20T12:51:29;10.80;99.90
26909;DHT22;14477;51.038;4.588;2023-12-20T12:53:55;10.80;99.90
26909;DHT22;14477;51.038;4.588;2023-12-20T12:58:47;10.90;99.90
26909;DHT22;14477;51.038;4.588;2023-12-20T13:01:13;11.00;99.90
26909;DHT22;14477;51.038;4.588;2023-12-20T13:06:06;11.00;99.90
26909;DHT22;14477;51.038;4.588;2023-12-20T13:08:34;10.90;99.90
26909;DHT22;14477;51.038;4.588;2023-12-20T13:11:00;10.10;99.90
26909;DHT22;14477;51.038;4.588;2023-12-20T13:13:32;11.00;99.90
26909;DHT22;14477;51.038;4.588;2023-12-20T13:15:57;11.00;99.90
26909;DHT22;14477;51.038;4.588;2023-12-20T13:18:23;11.00;99.90
26909;DHT22;14477;51.038;4.588;2023-12-20T13:20:49;9.60;99.90
26909;DHT22;14477;51.038;4.588;2023-12-20T13:23:15;11.00;99.90
26909;DHT22;14477;51.038;4.588;2023-12-20T13:25:43;11.00;99.90
26909;DHT22;14477;51.038;4.588;2023-12-20T13:28:11;11.00;99.90
26909;DHT22;14477;51.038;4.588;2023-12-20T13:30:37;11.00;99.90
26909;DHT22;14477;51.038;4.588;2023-12-20T13:33:04;11.00;99.90
26909;DHT22;14477;51.038;4.588;2023-12-20T13:35:31;11.00;99.90
26909;DHT22;14477;51.038;4.588;2023-12-20T13:37:58;11.00;99.90
26909;DHT22;14477;51.038;4.588;2023-12-20T13:40:24;11.00;99.90
26909;DHT22;14477;51.038;4.588;2023-12-20T13:42:50;11.10;99.90
26909;DHT22;14477;51.038;4.588;2023-12-20T13:45:16;11.00;99.90
26909;DHT22;14477;51.038;4.588;2023-12-20T13:47:42;11.00;99.90
26909;DHT22;14477;51.038;4.588;2023-12-20T13:50:08;11.00;99.90
26909;DHT22;14477;51.038;4.588;2023-12-20T13:52:33;11.00;99.90
26909;DHT22;14477;51.038;4.588;2023-12-20T13:54:59;11.00;99.90
26909;DHT22;14477;51.038;4.588;2023-12-20T13:57:25;10.90;99.90
26909;DHT22;14477;51.038;4.588;2023-12-20T13:59:51;11.00;99.90
26909;DHT22;14477;51.038;4.588;2023-12-20T14:02:17;11.00;99.90
26909;DHT22;14477;51.038;4.588;2023-12-20T14:04:42;11.00;99.90
26909;DHT22;14477;51.038;4.588;2023-12-20T14:07:08;11.00;99.90
26909;DHT22;14477;51.038;4.588;2023-12-20T14:09:36;11.10;99.90
26909;DHT22;14477;51.038;4.588;2023-12-20T14:12:02;11.00;99.90
26909;DHT22;14477;51.038;4.588;2023-12-20T14:14:27;11.10;99.90
26909;DHT22;14477;51.038;4.588;2023-12-20T14:16:53;11.10;99.90
26909;DHT22;14477;51.038;4.588;2023-12-20T14:19:19;11.00;99.90
26909;DHT22;14477;51.038;4.588;2023-12-20T14:21:45;11.10;99.90
26909;DHT22;14477;51.038;4.588;2023-12-20T14:24:14;11.10;99.90
26909;DHT22;14477;51.038;4.588;2023-12-20T14:26:41;11.10;99.90
26909;DHT22;14477;51.038;4.588;2023-12-20T14:29:07;11.10;99.90
26909;DHT22;14477;51.038;4.588;2023-12-20T14:31:34;11.10;99.90
26909;DHT22;14477;51.038;4.588;2023-12-20T14:34:00;11.20;99.90
26909;DHT22;14477;51.038;4.588;2023-12-20T14:36:29;11.20;99.90
26909;DHT22;14477;51.038;4.588;2023-12-20T14:38:58;11.20;99.90
26909;DHT22;14477;51.038;4.588;2023-12-20T14:41:24;11.20;99.90
26909;DHT22;14477;51.038;4.588;2023-12-20T14:43:51;11.20;99.90
26909;DHT22;14477;51.038;4.588;2023-12-20T14:46:20;11.30;99.90
26909;DHT22;14477;51.038;4.588;2023-12-20T14:48:46;11.20;99.90
26909;DHT22;14477;51.038;4.588;2023-12-20T14:51:12;11.30;99.90
26909;DHT22;14477;51.038;4.588;2023-12-20T14:53:38;10.50;99.90
26909;DHT22;14477;51.038;4.588;2023-12-20T14:56:05;11.20;99.90
26909;DHT22;14477;51.038;4.588;2023-12-20T14:58:31;11.30;99.90
26909;DHT22;14477;51.038;4.588;2023-12-20T15:00:57;11.20;99.90
26909;DHT22;14477;51.038;4.588;2023-12-20T15:03:23;11.30;99.90
26909;DHT22;14477;51.038;4.588;2023-12-20T15:05:49;11.20;99.90
26909;DHT22;14477;51.038;4.588;2023-12-20T15:08:15;11.20;99.90
26909;DHT22;14477;51.038;4.588;2023-12-20T15:10:41;11.20;99.90
26909;DHT22;14477;51.038;4.588;2023-12-20T15:13:07;10.50;99.90
26909;DHT22;14477;51.038;4.588;2023-12-20T15:15:33;11.20;99.90
26909;DHT22;14477;51.038;4.588;2023-12-20T15:17:59;11.20;99.90
26909;DHT22;14477;51.038;4.588;2023-12-20T15:20:25;11.20;99.90
26909;DHT22;14477;51.038;4.588;2023-12-20T15:22:51;11.20;99.90
26909;DHT22;14477;51.038;4.588;2023-12-20T15:25:18;11.20;99.90
26909;DHT22;14477;51.038;4.588;2023-12-20T15:27:49;11.20;99.90
26909;DHT22;14477;51.038;4.588;2023-12-20T15:30:20;11.20;99.90
26909;DHT22;14477;51.038;4.588;2023-12-20T15:32:46;11.20;99.90
26909;DHT22;14477;51.038;4.588;2023-12-20T15:35:12;11.20;99.90
26909;DHT22;14477;51.038;4.588;2023-12-20T15:37:38;11.20;99.90
26909;DHT22;14477;51.038;4.588;2023-12-20T15:40:07;11.20;99.90
26909;DHT22;14477;51.038;4.588;2023-12-20T15:42:33;11.10;99.90
26909;DHT22;14477;51.038;4.588;2023-12-20T15:45:03;11.10;99.90
26909;DHT22;14477;51.038;4.588;2023-12-20T15:47:29;11.20;99.90
26909;DHT22;14477;51.038;4.588;2023-12-20T15:49:55;11.10;99.90
26909;DHT22;14477;51.038;4.588;2023-12-20T15:52:20;11.10;99.90
26909;DHT22;14477;51.038;4.588;2023-12-20T15:54:46;10.50;99.90
26909;DHT22;14477;51.038;4.588;2023-12-20T15:59:42;11.20;99.90
26909;DHT22;14477;51.038;4.588;2023-12-20T16:02:08;11.20;99.90
26909;DHT22;14477;51.038;4.588;2023-12-20T16:04:34;11.20;99.90
26909;DHT22;14477;51.038;4.588;2023-12-20T16:07:00;11.20;99.90
26909;DHT22;14477;51.038;4.588;2023-12-20T16:09:26;11.20;99.90
26909;DHT22;14477;51.038;4.588;2023-12-20T16:11:51;11.20;99.90
26909;DHT22;14477;51.038;4.588;2023-12-20T16:14:17;11.20;99.90
26909;DHT22;14477;51.038;4.588;2023-12-20T16:16:45;11.20;99.90